Time;durP1;ratioP1;P1;durP2;ratioP2;P2;SDS_P1;SDS_P2;PMS_P1;PMS_P2;Temp;Humidity;BMP_temperature;BMP_pressure;BME280_temperature;BME280_humidity;BME280_pressure;Samples;Min_cycle;Max_cycle;Signal;HPM_P1;HPM_P2
2023/03/22 00:01:12;;;;;;;6.85;2.22;;;18.40;49.30;;;;;;5095712;28;20190;-73
2023/03/22 00:03:40;;;;;;;7.43;1.73;;;18.40;49.40;;;;;;5095573;28;20210;-73
2023/03/22 00:06:08;;;;;;;5.13;1.70;;;18.40;49.30;;;;;;5095304;28;20598;-72
2023/03/22 00:08:35;;;;;;;8.57;1.80;;;18.30;49.20;;;;;;5094972;28;20198;-72
2023/03/22 00:11:03;;;;;;;4.43;1.60;;;18.30;49.30;;;;;;5095334;28;20186;-72
2023/03/22 00:13:30;;;;;;;5.60;1.60;;;18.30;49.30;;;;;;5095605;28;20235;-72
2023/03/22 00:15:58;;;;;;;8.52;1.92;;;18.30;49.40;;;;;;5095381;28;20294;-72
2023/03/22 00:18:28;;;;;;;6.72;1.65;;;18.30;49.30;;;;;;5095481;28;20190;-73
2023/03/22 00:20:57;;;;;;;3.28;1.30;;;18.30;49.30;;;;;;5095211;28;20222;-73
2023/03/22 00:23:25;;;;;;;7.22;1.80;;;18.30;49.30;;;;;;5094893;28;20194;-72
2023/03/22 00:25:53;;;;;;;5.65;1.55;;;18.30;49.40;;;;;;5095082;28;20214;-72
2023/03/22 00:28:20;;;;;;;5.57;1.52;;;18.30;49.40;;;;;;5094996;28;20241;-73
2023/03/22 00:30:52;;;;;;;10.82;2.58;;;18.30;49.40;;;;;;5095288;28;20286;-72
2023/03/22 00:33:20;;;;;;;5.65;2.00;;;18.30;49.40;;;;;;5095158;28;20186;-73
2023/03/22 00:35:54;;;;;;;5.60;1.77;;;18.30;49.40;;;;;;5095073;28;20213;-72
2023/03/22 00:38:21;;;;;;;5.05;1.58;;;18.30;49.40;;;;;;5094709;28;20263;-73
2023/03/22 00:40:48;;;;;;;4.03;1.35;;;18.30;49.50;;;;;;5094555;28;20764;-72
2023/03/22 00:43:16;;;;;;;6.78;1.88;;;18.30;49.50;;;;;;5094511;28;20648;-73
2023/03/22 00:45:43;;;;;;;6.03;2.25;;;18.30;49.50;;;;;;5094831;28;20218;-72
2023/03/22 00:48:11;;;;;;;5.35;1.70;;;18.30;49.50;;;;;;5094354;28;20191;-72
2023/03/22 00:50:39;;;;;;;5.70;1.92;;;18.30;49.50;;;;;;5094901;28;20210;-73
2023/03/22 00:53:08;;;;;;;7.80;1.85;;;18.20;49.40;;;;;;5094860;28;20188;-71
2023/03/22 00:55:35;;;;;;;6.25;1.90;;;18.20;49.50;;;;;;5094367;28;20623;-71
2023/03/22 00:58:02;;;;;;;8.77;1.80;;;18.30;49.50;;;;;;5093888;28;20182;-72
2023/03/22 01:00:30;;;;;;;4.43;1.52;;;18.20;49.40;;;;;;5094375;28;20751;-72
2023/03/22 01:03:03;;;;;;;6.65;1.70;;;18.20;49.40;;;;;;5094533;28;20190;-72
2023/03/22 01:05:32;;;;;;;6.70;1.65;;;18.20;49.40;;;;;;5094117;28;20265;-72
2023/03/22 01:08:05;;;;;;;6.82;1.67;;;18.20;49.50;;;;;;5094384;28;20570;-72
2023/03/22 01:10:34;;;;;;;5.00;1.30;;;18.20;49.40;;;;;;5094087;28;20249;-72
2023/03/22 01:13:02;;;;;;;6.93;1.70;;;18.20;49.40;;;;;;5094375;28;20187;-73
2023/03/22 01:15:29;;;;;;;4.32;1.65;;;18.20;49.40;;;;;;5094044;28;20217;-71
2023/03/22 01:17:56;;;;;;;5.43;1.50;;;18.20;49.50;;;;;;5094403;28;20187;-72
2023/03/22 01:20:24;;;;;;;6.53;1.55;;;18.20;49.40;;;;;;5094319;28;20572;-72
2023/03/22 01:22:52;;;;;;;6.78;1.67;;;18.20;49.40;;;;;;5094018;28;20676;-72
2023/03/22 01:25:19;;;;;;;9.18;2.30;;;18.20;49.40;;;;;;5093611;28;20226;-71
2023/03/22 01:27:47;;;;;;;6.43;1.92;;;18.20;49.40;;;;;;5093653;28;20717;-71
2023/03/22 01:30:15;;;;;;;6.07;1.70;;;18.10;49.40;;;;;;5093483;28;20711;-70
2023/03/22 01:32:42;;;;;;;4.75;1.83;;;18.20;49.50;;;;;;5094097;28;20256;-71
2023/03/22 01:35:10;;;;;;;6.00;1.60;;;18.20;49.50;;;;;;5094161;28;20267;-71
2023/03/22 01:37:37;;;;;;;6.57;1.60;;;18.20;49.40;;;;;;5093618;28;20255;-71
2023/03/22 01:40:05;;;;;;;6.47;1.70;;;18.20;49.50;;;;;;5094111;28;20609;-71
2023/03/22 01:42:32;;;;;;;5.15;1.67;;;18.20;49.40;;;;;;5093866;28;20209;-72
2023/03/22 01:45:33;;;;;;;7.07;1.80;;;18.10;49.40;;;;;;5093092;28;20647;-71
2023/03/22 01:48:05;;;;;;;6.40;1.80;;;18.20;49.40;;;;;;5059833;28;20186;-71
2023/03/22 01:50:33;;;;;;;4.90;1.70;;;18.10;49.40;;;;;;5093585;28;20218;-71
2023/03/22 01:53:04;;;;;;;5.03;1.67;;;18.10;49.40;;;;;;5093278;28;20632;-72
2023/03/22 01:55:32;;;;;;;6.78;1.92;;;18.10;49.40;;;;;;5093139;28;20706;-71
2023/03/22 01:58:01;;;;;;;6.43;1.90;;;18.10;49.40;;;;;;5093570;28;20644;-71
2023/03/22 02:00:28;;;;;;;6.25;2.08;;;18.10;49.40;;;;;;5093222;28;20699;-72
2023/03/22 02:02:57;;;;;;;5.18;1.80;;;18.10;49.40;;;;;;5093268;28;20223;-71
2023/03/22 02:05:26;;;;;;;9.23;1.90;;;18.10;49.40;;;;;;5093169;28;20684;-71
2023/03/22 02:07:53;;;;;;;5.10;1.70;;;18.10;49.50;;;;;;5093411;28;20190;-73
2023/03/22 02:10:24;;;;;;;9.23;1.73;;;18.10;49.50;;;;;;5092852;28;20210;-72
2023/03/22 02:13:20;;;;;;;7.82;1.90;;;18.10;49.60;;;;;;5093328;28;20303;-72
2023/03/22 02:15:51;;;;;;;7.95;2.33;;;18.10;49.70;;;;;;5092719;28;20229;-72
2023/03/22 02:18:30;;;;;;;7.38;1.85;;;18.10;49.70;;;;;;5092740;28;20666;-73
2023/03/22 02:21:29;;;;;;;6.20;1.80;;;18.10;49.70;;;;;;5092804;28;20631;-73
2023/03/22 02:24:45;;;;;;;6.82;1.80;;;18.10;49.70;;;;;;5093312;28;20647;-73
2023/03/22 02:27:40;;;;;;;6.32;1.60;;;18.10;49.70;;;;;;5093009;28;20190;-72
2023/03/22 02:30:33;;;;;;;6.68;1.90;;;18.10;49.70;;;;;;5092483;28;20646;-73
2023/03/22 02:33:17;;;;;;;8.00;1.77;;;18.10;49.70;;;;;;5092808;28;20298;-73
2023/03/22 02:36:00;;;;;;;4.40;1.30;;;18.10;49.70;;;;;;5091594;28;20225;-72
2023/03/22 02:38:59;;;;;;;5.28;1.75;;;18.10;49.80;;;;;;5092321;28;20707;-73
2023/03/22 02:41:40;;;;;;;6.63;1.70;;;18.10;49.80;;;;;;5092147;28;20251;-73
2023/03/22 02:44:17;;;;;;;7.20;1.85;;;18.10;49.80;;;;;;5092655;28;20186;-72
2023/03/22 02:46:47;;;;;;;6.60;1.80;;;18.10;49.80;;;;;;5092719;28;20190;-73
2023/03/22 02:49:20;;;;;;;5.28;1.30;;;18.10;49.80;;;;;;5092590;28;20679;-73
2023/03/22 02:51:54;;;;;;;7.68;1.80;;;18.00;49.80;;;;;;5092213;28;20588;-72
2023/03/22 02:54:28;;;;;;;5.95;1.92;;;18.00;49.80;;;;;;5092621;28;20278;-73
2023/03/22 02:57:01;;;;;;;5.25;1.55;;;18.00;49.80;;;;;;5092546;28;20212;-72
2023/03/22 02:59:31;;;;;;;7.68;1.90;;;18.10;49.90;;;;;;5092471;28;20214;-73
2023/03/22 03:02:01;;;;;;;9.23;2.00;;;18.10;50.00;;;;;;5092489;28;20244;-72
2023/03/22 03:04:31;;;;;;;5.75;1.77;;;18.00;49.90;;;;;;5092491;28;20222;-72
2023/03/22 03:07:02;;;;;;;6.65;1.60;;;18.00;49.90;;;;;;5092352;28;20195;-72
2023/03/22 03:09:33;;;;;;;8.38;1.77;;;18.00;50.00;;;;;;5092212;28;20213;-72
2023/03/22 03:12:00;;;;;;;6.32;1.75;;;18.00;50.00;;;;;;5091999;28;20671;-72
2023/03/22 03:14:29;;;;;;;9.25;1.85;;;18.00;50.00;;;;;;5092496;28;20218;-72
2023/03/22 03:17:10;;;;;;;6.90;2.03;;;18.00;50.00;;;;;;5091980;28;20235;-72
2023/03/22 03:19:46;;;;;;;4.65;1.55;;;18.00;50.00;;;;;;5092325;28;20221;-72
2023/03/22 03:22:32;;;;;;;5.70;1.52;;;18.00;50.00;;;;;;5095722;28;20254;-72
2023/03/22 03:25:09;;;;;;;8.73;1.67;;;18.00;50.10;;;;;;5096201;28;20687;-72
2023/03/22 03:27:42;;;;;;;4.80;1.52;;;18.00;50.20;;;;;;5096326;28;20185;-73
2023/03/22 03:30:13;;;;;;;6.53;1.70;;;18.00;50.10;;;;;;5096175;28;20214;-72
2023/03/22 03:32:45;;;;;;;6.28;1.35;;;18.00;50.20;;;;;;5096332;28;20189;-72
2023/03/22 03:35:21;;;;;;;6.60;1.60;;;18.00;50.20;;;;;;5096219;28;20209;-73
2023/03/22 03:37:51;;;;;;;8.10;1.70;;;18.00;50.20;;;;;;5095947;28;20186;-72
2023/03/22 03:40:24;;;;;;;7.72;2.25;;;17.90;50.10;;;;;;5095871;28;20757;-72
2023/03/22 03:42:55;;;;;;;7.13;1.98;;;18.00;50.20;;;;;;5096030;28;20263;-72
2023/03/22 03:45:23;;;;;;;7.88;1.60;;;18.00;50.20;;;;;;5095857;28;20237;-73
2023/03/22 03:47:55;;;;;;;9.23;2.10;;;18.00;50.20;;;;;;5094849;28;20722;-73
2023/03/22 03:50:24;;;;;;;5.60;1.80;;;18.00;50.20;;;;;;5095850;28;20218;-72
2023/03/22 03:52:51;;;;;;;5.78;1.60;;;18.00;50.20;;;;;;5095882;28;20189;-72
2023/03/22 03:55:21;;;;;;;8.15;1.88;;;18.00;50.20;;;;;;5095697;28;20628;-71
2023/03/22 03:57:48;;;;;;;6.93;1.70;;;18.00;50.30;;;;;;5095534;28;20648;-73
2023/03/22 04:00:16;;;;;;;6.63;1.65;;;17.90;50.20;;;;;;5095612;28;20226;-72
2023/03/22 04:02:44;;;;;;;4.75;1.50;;;17.90;50.20;;;;;;5095775;28;20200;-72
2023/03/22 04:05:12;;;;;;;6.95;1.90;;;17.90;50.20;;;;;;5095747;28;20229;-72
2023/03/22 04:07:40;;;;;;;5.80;1.88;;;17.90;50.20;;;;;;5095630;28;20247;-72
2023/03/22 04:10:08;;;;;;;8.10;2.10;;;17.90;50.30;;;;;;5095356;28;20714;-72
2023/03/22 04:12:37;;;;;;;9.38;2.00;;;17.90;50.30;;;;;;5095341;28;20182;-71
2023/03/22 04:15:05;;;;;;;9.05;2.10;;;17.90;50.30;;;;;;5095663;28;20222;-72
2023/03/22 04:17:32;;;;;;;6.70;2.10;;;18.00;50.40;;;;;;5095046;28;20193;-73
2023/03/22 04:20:04;;;;;;;6.00;1.67;;;17.90;50.30;;;;;;5095236;28;20695;-72
2023/03/22 04:22:33;;;;;;;6.35;1.83;;;17.90;50.40;;;;;;5095442;28;20243;-72
2023/03/22 04:25:01;;;;;;;7.22;1.80;;;17.90;50.40;;;;;;5095040;28;20236;-72
2023/03/22 04:27:28;;;;;;;7.10;1.70;;;17.90;50.40;;;;;;5095179;28;20255;-72
2023/03/22 04:29:59;;;;;;;6.38;1.50;;;17.90;50.40;;;;;;5095055;28;20268;-72
2023/03/22 04:32:26;;;;;;;7.28;1.75;;;17.90;50.40;;;;;;5094942;28;20705;-72
2023/03/22 04:34:53;;;;;;;5.55;1.55;;;17.90;50.40;;;;;;5095146;28;20291;-72
2023/03/22 04:37:23;;;;;;;7.45;1.85;;;17.90;50.50;;;;;;5094902;28;20186;-71
2023/03/22 04:39:51;;;;;;;10.00;1.92;;;17.90;50.40;;;;;;5094712;28;20234;-71
2023/03/22 04:42:18;;;;;;;6.60;1.67;;;17.90;50.50;;;;;;5094835;28;20250;-72
2023/03/22 04:44:45;;;;;;;8.73;1.67;;;17.90;50.50;;;;;;5094821;28;20707;-73
2023/03/22 04:47:14;;;;;;;6.63;1.63;;;17.90;50.50;;;;;;5094859;28;20194;-72
2023/03/22 04:49:41;;;;;;;6.88;1.95;;;17.90;50.50;;;;;;5094619;28;20264;-72
2023/03/22 04:52:08;;;;;;;9.60;1.77;;;17.90;50.50;;;;;;5094910;28;20186;-71
2023/03/22 04:54:36;;;;;;;5.82;1.70;;;17.90;50.50;;;;;;5094834;28;20267;-72
2023/03/22 04:57:04;;;;;;;8.82;2.10;;;17.90;50.60;;;;;;5094554;28;20559;-72
2023/03/22 04:59:31;;;;;;;5.00;1.70;;;17.90;50.60;;;;;;5094895;28;20245;-73
2023/03/22 05:01:59;;;;;;;6.20;1.50;;;17.90;50.70;;;;;;5094103;28;20602;-71
2023/03/22 05:04:27;;;;;;;6.88;1.70;;;17.90;50.80;;;;;;5094535;28;20186;-71
2023/03/22 05:06:54;;;;;;;6.40;1.77;;;17.90;50.70;;;;;;5094237;28;20267;-72
2023/03/22 05:09:22;;;;;;;4.53;1.70;;;17.90;50.70;;;;;;5094260;28;20326;-72
2023/03/22 05:11:49;;;;;;;4.00;1.45;;;17.90;50.70;;;;;;5094534;28;20194;-72
2023/03/22 05:14:16;;;;;;;7.97;2.10;;;17.90;50.70;;;;;;5094460;28;20209;-71
2023/03/22 05:16:43;;;;;;;8.15;2.30;;;17.90;50.80;;;;;;5094049;28;20614;-72
2023/03/22 05:19:12;;;;;;;7.00;1.73;;;17.90;50.80;;;;;;5094016;28;20240;-72
2023/03/22 05:21:42;;;;;;;6.43;1.80;;;17.90;50.70;;;;;;5094120;28;20194;-72
2023/03/22 05:24:10;;;;;;;6.30;1.90;;;17.80;50.70;;;;;;5094213;28;20186;-72
2023/03/22 05:26:41;;;;;;;6.38;1.70;;;17.90;50.80;;;;;;5094083;28;20270;-70
2023/03/22 05:29:09;;;;;;;10.73;1.80;;;17.80;50.70;;;;;;5093541;28;20644;-71
2023/03/22 05:31:36;;;;;;;6.32;1.73;;;17.80;50.70;;;;;;5093712;28;20593;-71
2023/03/22 05:34:03;;;;;;;5.70;1.55;;;17.80;50.70;;;;;;5058568;28;20201;-72
2023/03/22 05:36:31;;;;;;;6.75;1.85;;;17.90;50.80;;;;;;5094150;28;20218;-72
2023/03/22 05:38:59;;;;;;;5.90;1.60;;;17.90;50.80;;;;;;5093837;28;20782;-72
2023/03/22 05:41:26;;;;;;;9.10;1.63;;;17.90;50.80;;;;;;5094293;28;20217;-72
2023/03/22 05:43:53;;;;;;;7.55;1.67;;;17.80;50.70;;;;;;5093230;28;20660;-72
2023/03/22 05:46:21;;;;;;;6.45;2.00;;;17.80;50.70;;;;;;5093325;28;20226;-72
2023/03/22 05:48:48;;;;;;;7.10;1.60;;;17.90;50.80;;;;;;5093586;28;20231;-72
2023/03/22 05:51:18;;;;;;;7.78;1.77;;;17.90;50.80;;;;;;5093381;28;20703;-72
2023/03/22 05:53:45;;;;;;;6.15;1.60;;;17.90;50.80;;;;;;5093666;28;20251;-73
2023/03/22 05:56:14;;;;;;;6.32;1.65;;;17.90;50.80;;;;;;5093611;28;20214;-73
2023/03/22 05:58:41;;;;;;;3.78;1.52;;;17.90;50.80;;;;;;5093607;28;20186;-73
2023/03/22 06:01:10;;;;;;;6.55;1.77;;;17.90;50.90;;;;;;5093142;28;20710;-73
2023/03/22 06:03:38;;;;;;;5.13;1.85;;;17.90;50.90;;;;;;5092975;28;20544;-73
2023/03/22 06:06:09;;;;;;;4.90;1.65;;;17.90;50.90;;;;;;5093020;28;20748;-72
2023/03/22 06:08:37;;;;;;;4.05;1.42;;;18.00;50.90;;;;;;5092832;28;20687;-73
2023/03/22 06:11:05;;;;;;;6.50;1.75;;;18.00;50.90;;;;;;5093247;28;20628;-73
2023/03/22 06:13:36;;;;;;;4.60;1.40;;;18.00;50.90;;;;;;5093248;28;20236;-73
2023/03/22 06:16:04;;;;;;;6.43;1.65;;;18.00;50.90;;;;;;5093176;28;20222;-73
2023/03/22 06:18:32;;;;;;;7.63;2.05;;;18.00;50.90;;;;;;5092878;28;20291;-73
2023/03/22 06:20:59;;;;;;;6.72;1.88;;;18.10;51.00;;;;;;5093332;28;20268;-73
2023/03/22 06:23:26;;;;;;;7.20;2.08;;;18.10;50.90;;;;;;5093083;28;20190;-72
2023/03/22 06:25:54;;;;;;;5.65;1.80;;;18.10;50.90;;;;;;5092638;28;20654;-72
2023/03/22 06:28:21;;;;;;;7.88;1.58;;;18.10;50.90;;;;;;5092548;28;20186;-73
2023/03/22 06:30:50;;;;;;;9.70;1.83;;;18.10;50.90;;;;;;5093024;28;20229;-72
2023/03/22 06:33:17;;;;;;;5.78;1.58;;;18.10;50.90;;;;;;5092813;28;20190;-72
2023/03/22 06:35:45;;;;;;;5.82;1.70;;;18.10;50.90;;;;;;5092725;28;20264;-72
2023/03/22 06:38:12;;;;;;;5.57;1.55;;;18.20;51.00;;;;;;5092646;28;20226;-72
2023/03/22 06:40:39;;;;;;;7.00;1.80;;;18.20;51.00;;;;;;5092956;28;20220;-73
2023/03/22 06:43:06;;;;;;;7.18;1.83;;;18.20;50.90;;;;;;5091856;28;20721;-72
2023/03/22 06:45:34;;;;;;;4.97;1.52;;;18.20;50.90;;;;;;5092317;28;20696;-72
2023/03/22 06:48:03;;;;;;;8.30;1.55;;;18.20;50.90;;;;;;5092361;28;20186;-73
2023/03/22 06:50:31;;;;;;;10.15;1.90;;;18.30;50.90;;;;;;5092498;28;20218;-73
2023/03/22 06:52:58;;;;;;;7.82;1.98;;;18.30;50.90;;;;;;5092706;28;20189;-72
2023/03/22 06:55:25;;;;;;;5.60;1.70;;;18.20;50.80;;;;;;5091303;28;20702;-73
2023/03/22 06:57:52;;;;;;;5.72;1.40;;;18.30;51.60;;;;;;5092530;28;20240;-72
2023/03/22 07:00:19;;;;;;;6.65;1.67;;;18.30;50.80;;;;;;5092210;28;20756;-72
2023/03/22 07:02:47;;;;;;;4.40;1.33;;;18.30;50.80;;;;;;5092587;28;20236;-72
2023/03/22 07:05:16;;;;;;;8.20;1.83;;;18.30;50.80;;;;;;5092474;28;20214;-72
2023/03/22 07:07:43;;;;;;;4.78;1.60;;;18.30;50.80;;;;;;5092620;28;20189;-73
2023/03/22 07:10:10;;;;;;;6.05;1.73;;;18.30;50.80;;;;;;5092037;28;20217;-73
2023/03/22 07:12:37;;;;;;;4.85;1.50;;;18.40;50.90;;;;;;5092140;28;20186;-72
2023/03/22 07:15:05;;;;;;;5.13;1.48;;;18.40;51.00;;;;;;5085538;28;20222;-73
2023/03/22 07:17:32;;;;;;;4.93;1.63;;;18.40;51.00;;;;;;5075790;28;20195;-72
2023/03/22 07:20:00;;;;;;;5.88;2.08;;;18.40;51.00;;;;;;5071833;28;20219;-73
2023/03/22 07:22:29;;;;;;;6.95;1.50;;;18.40;51.00;;;;;;5087004;28;20190;-73
2023/03/22 07:24:56;;;;;;;7.10;1.80;;;18.50;51.00;;;;;;5092026;28;20217;-72
2023/03/22 07:27:23;;;;;;;5.35;1.60;;;18.50;51.00;;;;;;5092069;28;20221;-73
2023/03/22 07:29:50;;;;;;;4.45;1.40;;;18.50;51.00;;;;;;5091892;28;20699;-73
2023/03/22 07:32:18;;;;;;;3.53;1.40;;;18.50;51.00;;;;;;5091994;28;20186;-73
2023/03/22 07:34:45;;;;;;;4.40;1.10;;;18.60;51.10;;;;;;5091823;28;20629;-73
2023/03/22 07:37:12;;;;;;;4.97;1.52;;;18.60;51.00;;;;;;5072151;28;20205;-72
2023/03/22 07:39:40;;;;;;;4.45;1.45;;;18.60;51.00;;;;;;5091364;28;20287;-72
2023/03/22 07:42:08;;;;;;;6.68;1.52;;;18.60;51.10;;;;;;5082396;28;20202;-69
2023/03/22 07:44:36;;;;;;;3.72;1.48;;;18.70;51.10;;;;;;5089018;28;20202;-71
2023/03/22 07:47:03;;;;;;;3.97;1.27;;;18.70;51.10;;;;;;5090405;28;20573;-72
2023/03/22 07:49:31;;;;;;;4.32;1.52;;;18.70;51.20;;;;;;5081222;28;20199;-71
2023/03/22 07:51:59;;;;;;;2.88;1.25;;;18.80;51.20;;;;;;5075253;28;20227;-71
2023/03/22 07:54:26;;;;;;;4.38;1.65;;;18.80;51.20;;;;;;5071056;28;20187;-72
2023/03/22 07:56:55;;;;;;;4.72;1.40;;;18.80;51.20;;;;;;5086852;28;20217;-72
2023/03/22 07:59:23;;;;;;;2.97;1.30;;;18.80;51.20;;;;;;5090836;28;20188;-70
2023/03/22 08:01:51;;;;;;;7.55;1.40;;;18.90;51.50;;;;;;5091079;28;20214;-71
2023/03/22 08:04:21;;;;;;;6.95;1.27;;;18.90;51.40;;;;;;5090781;28;20186;-71
2023/03/22 08:06:50;;;;;;;5.28;1.30;;;18.90;51.60;;;;;;5091652;28;20226;-71
2023/03/22 08:09:17;;;;;;;2.47;1.20;;;19.00;51.60;;;;;;5094398;28;20194;-68
2023/03/22 08:11:44;;;;;;;3.60;1.20;;;19.00;51.60;;;;;;5094053;28;20214;-72
2023/03/22 08:14:13;;;;;;;3.50;1.50;;;19.00;52.30;;;;;;5094816;28;20189;-69
2023/03/22 08:16:42;;;;;;;4.28;1.08;;;19.00;51.60;;;;;;5084301;28;20222;-71
2023/03/22 08:19:10;;;;;;;5.13;1.20;;;19.00;51.60;;;;;;5074101;28;20183;-71
2023/03/22 08:21:37;;;;;;;2.42;1.10;;;19.10;51.70;;;;;;5072649;28;20276;-71
2023/03/22 08:24:06;;;;;;;3.13;1.35;;;19.10;51.70;;;;;;5073875;28;20186;-71
2023/03/22 08:26:33;;;;;;;5.50;1.15;;;19.10;52.00;;;;;;5068968;28;20252;-70
2023/03/22 08:29:01;;;;;;;5.22;1.20;;;19.10;51.80;;;;;;5114853;28;20195;-71
2023/03/22 08:31:31;;;;;;;3.28;1.38;;;19.10;51.70;;;;;;5095176;28;20831;-71
2023/03/22 08:33:59;;;;;;;4.47;1.17;;;19.20;51.80;;;;;;5114727;28;20193;-71
2023/03/22 08:36:27;;;;;;;7.25;0.98;;;19.10;51.80;;;;;;5114692;28;20286;-70
2023/03/22 08:38:55;;;;;;;4.00;1.10;;;19.20;51.80;;;;;;5096489;28;20278;-70
2023/03/22 08:41:22;;;;;;;2.42;0.98;;;19.20;51.90;;;;;;5094108;28;20275;-69
2023/03/22 08:43:50;;;;;;;2.88;1.10;;;19.20;51.80;;;;;;5092627;28;20191;-70
2023/03/22 08:46:17;;;;;;;4.03;1.33;;;19.20;51.80;;;;;;5092070;28;20222;-71
2023/03/22 08:48:49;;;;;;;3.75;0.98;;;19.20;51.90;;;;;;5094259;28;20605;-71
2023/03/22 08:51:17;;;;;;;2.83;1.10;;;19.30;51.90;;;;;;5093862;28;20218;-71
2023/03/22 08:53:44;;;;;;;3.20;0.90;;;19.30;51.90;;;;;;5094037;28;20190;-71
2023/03/22 08:56:13;;;;;;;9.30;1.20;;;19.30;51.90;;;;;;5093618;28;20221;-72
2023/03/22 08:58:44;;;;;;;3.70;1.13;;;19.40;52.00;;;;;;5091999;28;20212;-71
2023/03/22 09:01:12;;;;;;;2.38;1.20;;;19.30;52.00;;;;;;5093250;28;20601;-70
2023/03/22 09:03:39;;;;;;;5.72;0.98;;;19.30;51.90;;;;;;5093243;28;20200;-68
2023/03/22 09:06:10;;;;;;;7.28;1.08;;;19.40;52.30;;;;;;5093170;28;20284;-68
2023/03/22 09:08:38;;;;;;;3.72;1.00;;;19.40;52.10;;;;;;5093244;28;20232;-71
2023/03/22 09:11:09;;;;;;;4.57;1.00;;;19.40;52.00;;;;;;5093471;28;20236;-70
2023/03/22 09:13:36;;;;;;;3.95;1.02;;;19.40;52.00;;;;;;5092919;28;20186;-69
2023/03/22 09:16:05;;;;;;;4.13;1.00;;;19.40;52.00;;;;;;5093206;28;20222;-70
2023/03/22 09:18:32;;;;;;;2.28;0.77;;;19.50;52.10;;;;;;5092056;28;20191;-71
2023/03/22 09:20:59;;;;;;;2.47;0.80;;;19.50;52.10;;;;;;5093084;28;20351;-70
2023/03/22 09:23:30;;;;;;;8.00;1.10;;;19.50;52.10;;;;;;5092958;28;20186;-71
2023/03/22 09:26:01;;;;;;;9.65;1.10;;;19.50;52.10;;;;;;5093075;28;20300;-71
2023/03/22 09:28:29;;;;;;;6.47;1.30;;;19.50;52.20;;;;;;5093163;28;20186;-72
2023/03/22 09:31:00;;;;;;;2.72;1.08;;;19.50;52.20;;;;;;5092832;28;20722;-71
2023/03/22 09:33:27;;;;;;;5.05;1.17;;;19.60;52.20;;;;;;5092514;28;20182;-71
2023/03/22 09:35:55;;;;;;;3.20;1.27;;;19.50;52.30;;;;;;5093168;28;20210;-70
2023/03/22 09:38:23;;;;;;;3.40;1.27;;;19.50;52.10;;;;;;5070876;28;20309;-69
2023/03/22 09:41:01;;;;;;;4.53;1.27;;;19.60;52.10;;;;;;5071363;28;20657;-71
2023/03/22 09:43:39;;;;;;;3.35;1.52;;;19.50;51.90;;;;;;5053694;28;20733;-71
2023/03/22 09:49:06;;;;;;;4.07;1.10;;;19.50;51.90;;;;;;5091440;28;20285;-71
2023/03/22 09:51:41;;;;;;;4.00;1.30;;;19.50;51.90;;;;;;5064953;28;20717;-72
2023/03/22 09:54:20;;;;;;;4.07;1.80;;;19.50;51.80;;;;;;5087305;28;20724;-72
2023/03/22 09:56:55;;;;;;;3.90;1.55;;;19.50;51.70;;;;;;5050005;28;20280;-70
2023/03/22 09:59:30;;;;;;;3.63;1.50;;;19.60;51.70;;;;;;5087071;28;20231;-69
2023/03/22 10:02:37;;;;;;;3.28;1.20;;;19.60;51.70;;;;;;5008282;28;20222;-71
2023/03/22 10:05:14;;;;;;;3.53;1.30;;;19.60;51.80;;;;;;5087132;28;20195;-72
2023/03/22 10:08:05;;;;;;;2.80;1.17;;;19.60;51.80;;;;;;5072676;28;20226;-71
2023/03/22 10:10:46;;;;;;;2.90;1.30;;;19.60;51.70;;;;;;5047692;28;20595;-72
2023/03/22 10:13:24;;;;;;;3.15;1.10;;;19.60;51.60;;;;;;5072795;28;20190;-71
2023/03/22 10:15:57;;;;;;;2.25;1.05;;;19.60;51.60;;;;;;5084757;28;20282;-69
2023/03/22 10:18:29;;;;;;;2.17;0.93;;;19.60;51.60;;;;;;5089466;28;20228;-68
2023/03/22 10:21:12;;;;;;;2.15;0.95;;;19.60;51.60;;;;;;5089296;28;20715;-68
2023/03/22 10:23:46;;;;;;;2.97;1.08;;;19.60;51.60;;;;;;5073547;28;20262;-68
2023/03/22 10:26:29;;;;;;;2.75;1.00;;;19.60;51.50;;;;;;5035656;28;20225;-68
2023/03/22 10:29:14;;;;;;;3.03;1.02;;;19.60;51.50;;;;;;5023084;28;20298;-68
2023/03/22 10:31:47;;;;;;;3.15;1.05;;;19.60;51.60;;;;;;5081286;28;20226;-70
2023/03/22 10:34:26;;;;;;;3.30;1.15;;;19.60;51.70;;;;;;5050340;28;20206;-70
2023/03/22 10:37:01;;;;;;;2.78;1.15;;;19.60;51.70;;;;;;5050825;28;20234;-68
2023/03/22 10:39:34;;;;;;;2.22;1.00;;;19.60;51.60;;;;;;5076001;28;20300;-71
2023/03/22 10:42:04;;;;;;;1.95;0.80;;;19.60;51.50;;;;;;5087046;28;20235;-68
2023/03/22 10:44:42;;;;;;;2.35;0.88;;;19.60;51.50;;;;;;5070884;28;20236;-70
2023/03/22 10:47:11;;;;;;;1.83;1.48;;;19.60;51.50;;;;;;5070811;28;20222;-68
2023/03/22 10:49:43;;;;;;;2.20;1.00;;;19.70;51.60;;;;;;5069989;28;20187;-71
2023/03/22 10:52:22;;;;;;;2.65;1.45;;;19.70;51.60;;;;;;5075024;28;20622;-67
2023/03/22 10:54:50;;;;;;;3.00;1.00;;;19.60;51.50;;;;;;5086983;28;20622;-71
2023/03/22 10:57:17;;;;;;;4.80;1.00;;;19.60;51.50;;;;;;5088354;28;20217;-71
2023/03/22 10:59:48;;;;;;;2.33;0.90;;;19.70;51.60;;;;;;5070446;28;20656;-73
2023/03/22 11:02:21;;;;;;;2.03;0.80;;;19.70;51.60;;;;;;5070852;28;20211;-68
2023/03/22 11:04:50;;;;;;;2.70;1.23;;;19.70;51.70;;;;;;5070406;28;20635;-68
2023/03/22 11:07:33;;;;;;;3.80;1.10;;;19.70;51.70;;;;;;5072999;28;20740;-69
2023/03/22 11:10:14;;;;;;;2.28;1.00;;;19.70;51.70;;;;;;5083777;28;20283;-68
2023/03/22 11:12:47;;;;;;;1.77;0.90;;;19.80;51.70;;;;;;5076714;28;20220;-70
2023/03/22 11:15:36;;;;;;;2.08;0.95;;;19.70;51.70;;;;;;5090387;28;20198;-68
2023/03/22 11:18:06;;;;;;;4.90;1.15;;;19.70;51.70;;;;;;5080989;28;20274;-72
2023/03/22 11:20:34;;;;;;;3.67;1.30;;;19.70;51.70;;;;;;5087819;28;20319;-71
2023/03/22 11:23:05;;;;;;;2.17;1.20;;;19.80;51.70;;;;;;5088166;28;20198;-71
2023/03/22 11:25:35;;;;;;;1.58;0.80;;;19.80;52.00;;;;;;5086490;28;20198;-70
2023/03/22 11:28:15;;;;;;;3.20;0.95;;;19.80;51.90;;;;;;5078647;28;20230;-69
2023/03/22 11:30:59;;;;;;;19.50;2.38;;;19.80;51.80;;;;;;5090137;28;20197;-69
2023/03/22 11:33:26;;;;;;;2.90;1.15;;;19.80;51.90;;;;;;5083376;28;20178;-70
2023/03/22 11:35:56;;;;;;;6.47;1.00;;;19.80;51.80;;;;;;5088219;28;20194;-70
2023/03/22 11:38:28;;;;;;;2.13;0.95;;;19.80;51.90;;;;;;5086913;28;20217;-71
2023/03/22 11:40:58;;;;;;;2.33;1.00;;;19.80;51.80;;;;;;5089943;28;20293;-72
2023/03/22 11:43:31;;;;;;;4.55;0.95;;;19.90;52.10;;;;;;5090659;28;20194;-71
2023/03/22 11:46:02;;;;;;;5.07;1.00;;;19.90;52.10;;;;;;5092449;28;20186;-71
2023/03/22 11:48:31;;;;;;;4.18;0.82;;;19.90;52.00;;;;;;5086308;28;20222;-69
2023/03/22 11:51:07;;;;;;;5.97;1.00;;;19.90;51.90;;;;;;5091378;28;20648;-71
2023/03/22 11:53:37;;;;;;;6.75;1.20;;;19.90;52.00;;;;;;5087877;28;20190;-70
2023/03/22 11:56:07;;;;;;;1.58;1.00;;;19.90;52.00;;;;;;5088645;28;20186;-69
2023/03/22 11:58:58;;;;;;;4.00;0.90;;;19.90;52.00;;;;;;5092084;28;20204;-71
2023/03/22 12:01:34;;;;;;;4.47;1.00;;;19.90;52.10;;;;;;5091042;28;20250;-70
2023/03/22 12:04:05;;;;;;;1.70;0.90;;;19.90;52.00;;;;;;5075415;28;20226;-69
2023/03/22 12:06:37;;;;;;;1.13;0.90;;;19.90;52.00;;;;;;5073121;28;20322;-69
2023/03/22 12:09:09;;;;;;;2.17;0.95;;;20.00;52.10;;;;;;5087513;28;20431;-70
2023/03/22 12:11:40;;;;;;;4.40;1.25;;;20.00;52.00;;;;;;5093844;28;20221;-70
2023/03/22 12:14:15;;;;;;;1.48;0.80;;;20.00;52.60;;;;;;5091977;28;20190;-71
2023/03/22 12:16:49;;;;;;;2.95;1.00;;;20.00;51.90;;;;;;5093220;28;20221;-69
2023/03/22 12:19:27;;;;;;;1.67;0.80;;;19.90;51.80;;;;;;5081652;28;20194;-71
2023/03/22 12:21:55;;;;;;;1.83;0.85;;;19.90;51.80;;;;;;5093533;28;20741;-70
2023/03/22 12:24:27;;;;;;;2.92;0.90;;;20.00;51.90;;;;;;5092741;28;20190;-68
2023/03/22 12:26:58;;;;;;;3.38;0.98;;;20.00;51.90;;;;;;5089943;28;20226;-69
2023/03/22 12:29:27;;;;;;;1.70;1.00;;;20.00;51.90;;;;;;5086380;28;20236;-68
2023/03/22 12:32:02;;;;;;;2.15;1.00;;;20.00;51.90;;;;;;5092999;28;20308;-67
2023/03/22 12:34:38;;;;;;;4.07;1.00;;;20.00;52.30;;;;;;5092236;28;20186;-72
2023/03/22 12:37:08;;;;;;;1.92;0.90;;;20.10;52.60;;;;;;5093678;28;20637;-71
2023/03/22 12:39:41;;;;;;;8.90;1.15;;;20.10;52.50;;;;;;5074941;28;20265;-71
2023/03/22 12:42:17;;;;;;;1.80;0.80;;;20.10;52.50;;;;;;5072779;28;20210;-73
2023/03/22 12:44:47;;;;;;;2.15;1.08;;;20.10;52.70;;;;;;5090038;28;20192;-70
2023/03/22 12:47:25;;;;;;;5.40;1.00;;;20.20;52.70;;;;;;5092727;28;20221;-72
2023/03/22 12:50:00;;;;;;;4.60;1.00;;;20.10;52.50;;;;;;5078370;28;20209;-71
2023/03/22 12:55:27;;;;;;;5.15;0.98;;;20.20;52.70;;;;;;5074273;28;20214;-70
2023/03/22 12:57:55;;;;;;;5.07;1.00;;;20.20;52.70;;;;;;5092359;28;20275;-71
2023/03/22 13:00:28;;;;;;;6.00;1.02;;;20.30;52.70;;;;;;5092477;28;20190;-70
2023/03/22 13:03:00;;;;;;;3.17;1.00;;;20.30;52.70;;;;;;5085359;28;20301;-71
2023/03/22 13:05:32;;;;;;;1.50;0.90;;;20.30;52.70;;;;;;5080540;28;20285;-70
2023/03/22 13:08:09;;;;;;;3.17;1.00;;;20.30;52.80;;;;;;5095468;28;20275;-71
2023/03/22 13:10:48;;;;;;;2.80;1.00;;;20.30;52.80;;;;;;5084528;28;20197;-74